KLM87Q EHAM-LEBB
Flight info
| Callsign | KLM87Q |
|---|---|
| Flight time | 1h 52m |
| Altitude | 23000 |
| Route | WOODY N872 CIV/N0452F350 N872 MEDIL DCT KOVIN DCT DUCRA UM728 RESMI UN857 DISAK DCT ARKIP DCT ARNAV DCT LMG DCT UVELI DCT OSMOB DCT VAVIX/N0397F230 DCT BTZ DCT URUNA P181 SSN L176 CEGAM |
| Aircraft | B738/M-SDE2E3FGIJ1RWY/LB1 |
Departure
| Time | 2026-05-07 18:51 |
|---|---|
| Airport | Amsterdam Airport Schiphol (EHAM) |
Arrival
| Time | 2026-05-07 20:43 |
|---|---|
| Airport | Bilbao Airport (LEBB) |
| Time | Latitude | Longitude | Altitude | Speed | Heading |
|---|---|---|---|---|---|
| 2026-05-07 18:07 | 52.30901 | 4.77175 | -2 ft | 0 kts | 2° |
| 2026-05-07 18:33 | 52.30879 | 4.77176 | -2 ft | 4 kts | 354° |
| 2026-05-07 18:34 | 52.30857 | 4.77176 | -2 ft | 4 kts | 48° |
| 2026-05-07 18:34 | 52.30849 | 4.77146 | -2 ft | 3 kts | 78° |
| 2026-05-07 18:34 | 52.30849 | 4.77141 | -2 ft | 1 kts | 77° |
| 2026-05-07 18:39 | 52.30847 | 4.77168 | -2 ft | 6 kts | 98° |
| 2026-05-07 18:39 | 52.30843 | 4.77241 | -2 ft | 7 kts | 92° |
| 2026-05-07 18:40 | 52.30841 | 4.77311 | -2 ft | 5 kts | 92° |
| 2026-05-07 18:40 | 52.30839 | 4.77375 | -2 ft | 6 kts | 95° |
| 2026-05-07 18:40 | 52.30831 | 4.77449 | -2 ft | 7 kts | 116° |
| 2026-05-07 18:40 | 52.30784 | 4.77464 | -2 ft | 8 kts | 184° |
| 2026-05-07 18:41 | 52.30721 | 4.77457 | -2 ft | 10 kts | 183° |
| 2026-05-07 18:41 | 52.30651 | 4.77434 | -2 ft | 11 kts | 217° |
| 2026-05-07 18:41 | 52.30602 | 4.77323 | -2 ft | 13 kts | 238° |
| 2026-05-07 18:41 | 52.30551 | 4.77190 | -2 ft | 15 kts | 238° |
| 2026-05-07 18:42 | 52.30494 | 4.77041 | -2 ft | 16 kts | 238° |
| 2026-05-07 18:42 | 52.30432 | 4.76880 | -2 ft | 18 kts | 238° |
| 2026-05-07 18:42 | 52.30364 | 4.76702 | -2 ft | 19 kts | 238° |
| 2026-05-07 18:42 | 52.30292 | 4.76513 | -2 ft | 19 kts | 238° |
| 2026-05-07 18:43 | 52.30236 | 4.76367 | -2 ft | 15 kts | 239° |
| 2026-05-07 18:43 | 52.30181 | 4.76224 | -2 ft | 15 kts | 237° |
| 2026-05-07 18:43 | 52.30128 | 4.76087 | -2 ft | 14 kts | 238° |
| 2026-05-07 18:43 | 52.30078 | 4.75957 | -2 ft | 13 kts | 238° |
| 2026-05-07 18:44 | 52.30029 | 4.75829 | -2 ft | 13 kts | 238° |
| 2026-05-07 18:44 | 52.29982 | 4.75708 | -2 ft | 13 kts | 238° |
| 2026-05-07 18:44 | 52.29935 | 4.75584 | -2 ft | 13 kts | 238° |
| 2026-05-07 18:44 | 52.29882 | 4.75444 | -2 ft | 16 kts | 238° |
| 2026-05-07 18:45 | 52.29831 | 4.75270 | -2 ft | 18 kts | 266° |
| 2026-05-07 18:45 | 52.29897 | 4.75092 | -2 ft | 20 kts | 311° |
| 2026-05-07 18:45 | 52.29991 | 4.74919 | -2 ft | 20 kts | 311° |
| 2026-05-07 18:45 | 52.30083 | 4.74749 | 1 ft | 20 kts | 311° |
| 2026-05-07 18:46 | 52.30173 | 4.74584 | 9 ft | 20 kts | 310° |
| 2026-05-07 18:46 | 52.30265 | 4.74412 | 9 ft | 21 kts | 311° |
| 2026-05-07 18:46 | 52.30350 | 4.74249 | -2 ft | 10 kts | 310° |
| 2026-05-07 18:46 | 52.30369 | 4.74141 | -2 ft | 11 kts | 257° |
| 2026-05-07 18:47 | 52.30320 | 4.74035 | -2 ft | 13 kts | 221° |
| 2026-05-07 18:47 | 52.30246 | 4.73948 | -2 ft | 11 kts | 216° |
| 2026-05-07 18:47 | 52.30231 | 4.73929 | -2 ft | 1 kts | 218° |
| 2026-05-07 18:47 | 52.30224 | 4.73920 | -2 ft | 1 kts | 218° |
| 2026-05-07 18:48 | 52.30218 | 4.73912 | -2 ft | 1 kts | 218° |
| 2026-05-07 18:48 | 52.30216 | 4.73909 | -2 ft | 0 kts | 218° |
| 2026-05-07 18:49 | 52.30214 | 4.73907 | -2 ft | 2 kts | 218° |
| 2026-05-07 18:49 | 52.30192 | 4.73864 | -3 ft | 9 kts | 243° |
| 2026-05-07 18:50 | 52.30200 | 4.73745 | -3 ft | 10 kts | 316° |
| 2026-05-07 18:50 | 52.30272 | 4.73743 | -5 ft | 12 kts | 4° |
| 2026-05-07 18:50 | 52.30426 | 4.73758 | -4 ft | 48 kts | 3° |
| 2026-05-07 18:50 | 52.30984 | 4.73808 | -2 ft | 111 kts | 3° |
| 2026-05-07 18:51 | 52.31934 | 4.73906 | 0 ft | 161 kts | 4° |
| 2026-05-07 18:51 | 52.33129 | 4.74018 | 414 ft | 170 kts | 6° |
| 2026-05-07 18:51 | 52.34253 | 4.74314 | 1262 ft | 161 kts | 25° |
| 2026-05-07 18:51 | 52.35270 | 4.75100 | 1891 ft | 166 kts | 28° |
| 2026-05-07 18:52 | 52.36389 | 4.75921 | 2269 ft | 191 kts | 28° |
| 2026-05-07 18:52 | 52.37426 | 4.77404 | 2502 ft | 209 kts | 65° |
| 2026-05-07 18:52 | 52.37549 | 4.79763 | 2883 ft | 218 kts | 102° |
| 2026-05-07 18:52 | 52.37137 | 4.82187 | 3395 ft | 224 kts | 112° |
| 2026-05-07 18:53 | 52.36188 | 4.84163 | 4054 ft | 228 kts | 147° |
| 2026-05-07 18:53 | 52.34644 | 4.85020 | 4440 ft | 248 kts | 176° |
| 2026-05-07 18:53 | 52.32878 | 4.85010 | 5071 ft | 256 kts | 181° |
| 2026-05-07 18:53 | 52.31085 | 4.84940 | 5870 ft | 260 kts | 181° |
| 2026-05-07 18:54 | 52.29239 | 4.84879 | 6380 ft | 276 kts | 181° |
| 2026-05-07 18:54 | 52.27227 | 4.84826 | 6591 ft | 300 kts | 181° |
| 2026-05-07 18:54 | 52.25062 | 4.84776 | 6863 ft | 320 kts | 181° |
| 2026-05-07 18:54 | 52.22795 | 4.84726 | 7386 ft | 329 kts | 181° |
| 2026-05-07 18:55 | 52.20518 | 4.84680 | 8208 ft | 330 kts | 181° |
| 2026-05-07 18:55 | 52.18191 | 4.84632 | 8857 ft | 336 kts | 181° |
| 2026-05-07 18:55 | 52.15820 | 4.84583 | 9459 ft | 342 kts | 181° |
| 2026-05-07 18:55 | 52.13425 | 4.84534 | 10144 ft | 347 kts | 181° |
| 2026-05-07 18:56 | 52.11010 | 4.84484 | 10717 ft | 352 kts | 181° |
| 2026-05-07 18:56 | 52.08541 | 4.84434 | 11493 ft | 352 kts | 181° |
| 2026-05-07 18:56 | 52.06066 | 4.84382 | 12103 ft | 358 kts | 182° |
| 2026-05-07 18:56 | 52.03541 | 4.84327 | 12800 ft | 361 kts | 183° |
| 2026-05-07 18:57 | 52.01100 | 4.83660 | 13413 ft | 364 kts | 202° |
| 2026-05-07 18:57 | 51.98823 | 4.81854 | 14126 ft | 366 kts | 208° |
| 2026-05-07 18:57 | 51.96538 | 4.79983 | 14766 ft | 369 kts | 207° |
| 2026-05-07 18:57 | 51.94221 | 4.78142 | 15399 ft | 374 kts | 207° |
| 2026-05-07 18:58 | 51.91869 | 4.76299 | 16049 ft | 377 kts | 206° |
| 2026-05-07 18:58 | 51.89501 | 4.74448 | 16745 ft | 380 kts | 206° |
| 2026-05-07 18:58 | 51.87110 | 4.72580 | 17364 ft | 383 kts | 206° |
| 2026-05-07 18:58 | 51.84694 | 4.70693 | 18016 ft | 387 kts | 206° |
| 2026-05-07 18:59 | 51.82259 | 4.68792 | 18601 ft | 391 kts | 206° |
| 2026-05-07 18:59 | 51.79795 | 4.66870 | 19142 ft | 394 kts | 206° |
| 2026-05-07 18:59 | 51.77322 | 4.64943 | 19725 ft | 396 kts | 207° |
| 2026-05-07 18:59 | 51.74832 | 4.63006 | 20296 ft | 398 kts | 207° |
| 2026-05-07 19:00 | 51.72330 | 4.61061 | 20850 ft | 401 kts | 207° |
| 2026-05-07 19:00 | 51.69811 | 4.59105 | 21400 ft | 403 kts | 207° |
| 2026-05-07 19:00 | 51.67279 | 4.57142 | 21936 ft | 405 kts | 207° |
| 2026-05-07 19:00 | 51.64723 | 4.55163 | 22451 ft | 408 kts | 207° |
| 2026-05-07 19:01 | 51.62160 | 4.53181 | 22996 ft | 409 kts | 207° |
| 2026-05-07 19:01 | 51.59576 | 4.51184 | 23058 ft | 413 kts | 207° |
| 2026-05-07 19:01 | 51.57868 | 4.49867 | 23073 ft | 412 kts | 207° |
| 2026-05-07 19:01 | 51.54435 | 4.47222 | 23067 ft | 406 kts | 207° |
| 2026-05-07 19:02 | 51.51887 | 4.45261 | 23084 ft | 408 kts | 207° |
| 2026-05-07 19:02 | 51.49304 | 4.43275 | 23136 ft | 416 kts | 207° |
| 2026-05-07 19:02 | 51.46657 | 4.41241 | 23243 ft | 427 kts | 207° |
| 2026-05-07 19:02 | 51.43945 | 4.39160 | 23349 ft | 437 kts | 207° |
| 2026-05-07 19:03 | 51.41179 | 4.37043 | 23518 ft | 445 kts | 207° |
| 2026-05-07 19:03 | 51.39316 | 4.35625 | 23684 ft | 448 kts | 206° |
| 2026-05-07 19:03 | 51.36481 | 4.33504 | 24021 ft | 450 kts | 206° |
| 2026-05-07 19:03 | 51.33652 | 4.31401 | 24511 ft | 448 kts | 206° |
| 2026-05-07 19:04 | 51.30834 | 4.29305 | 25068 ft | 444 kts | 206° |
| 2026-05-07 19:04 | 51.28054 | 4.27202 | 25566 ft | 442 kts | 207° |
| 2026-05-07 19:04 | 51.25277 | 4.25080 | 25994 ft | 442 kts | 207° |
| 2026-05-07 19:04 | 51.22510 | 4.22965 | 26431 ft | 441 kts | 207° |
| 2026-05-07 19:05 | 51.19742 | 4.20859 | 26929 ft | 439 kts | 207° |
| 2026-05-07 19:05 | 51.16985 | 4.18786 | 27456 ft | 437 kts | 206° |
| 2026-05-07 19:05 | 51.14198 | 4.16851 | 27923 ft | 437 kts | 205° |
| 2026-05-07 19:05 | 51.11387 | 4.14999 | 28362 ft | 437 kts | 204° |
| 2026-05-07 19:06 | 51.08576 | 4.13179 | 28823 ft | 436 kts | 204° |
| 2026-05-07 19:06 | 51.02987 | 4.09550 | 29820 ft | 432 kts | 205° |
| 2026-05-07 19:06 | 51.00211 | 4.07731 | 30251 ft | 432 kts | 205° |
| 2026-05-07 19:07 | 50.97434 | 4.05901 | 30619 ft | 431 kts | 205° |
| 2026-05-07 19:07 | 50.94633 | 4.04051 | 30965 ft | 431 kts | 205° |
| 2026-05-07 19:07 | 50.91896 | 4.02243 | 31070 ft | 434 kts | 205° |
| 2026-05-07 19:07 | 50.89065 | 4.00372 | 31078 ft | 435 kts | 205° |
| 2026-05-07 19:08 | 50.83511 | 3.96710 | 31093 ft | 438 kts | 205° |
| 2026-05-07 19:08 | 50.80681 | 3.94846 | 31233 ft | 443 kts | 205° |
| 2026-05-07 19:08 | 50.77832 | 3.92974 | 31525 ft | 443 kts | 205° |
| 2026-05-07 19:09 | 50.75000 | 3.91117 | 31946 ft | 440 kts | 205° |
| 2026-05-07 19:09 | 50.72172 | 3.89267 | 32339 ft | 438 kts | 205° |
| 2026-05-07 19:09 | 50.69357 | 3.87426 | 32663 ft | 438 kts | 205° |
| 2026-05-07 19:09 | 50.66540 | 3.85585 | 32956 ft | 438 kts | 205° |
| 2026-05-07 19:10 | 50.63725 | 3.83748 | 33278 ft | 437 kts | 205° |
| 2026-05-07 19:10 | 50.60921 | 3.81921 | 33626 ft | 436 kts | 205° |
| 2026-05-07 19:10 | 50.58114 | 3.80094 | 33942 ft | 436 kts | 205° |
| 2026-05-07 19:10 | 50.55318 | 3.78277 | 34218 ft | 435 kts | 205° |
| 2026-05-07 19:11 | 50.52516 | 3.76458 | 34442 ft | 436 kts | 205° |
| 2026-05-07 19:11 | 50.49714 | 3.74641 | 34659 ft | 436 kts | 205° |
| 2026-05-07 19:11 | 50.46948 | 3.72699 | 34892 ft | 434 kts | 209° |
| 2026-05-07 19:11 | 50.44274 | 3.70516 | 35076 ft | 434 kts | 210° |
| 2026-05-07 19:12 | 50.38953 | 3.65932 | 35085 ft | 435 kts | 211° |
| 2026-05-07 19:12 | 50.33666 | 3.61389 | 35071 ft | 432 kts | 210° |
| 2026-05-07 19:13 | 50.28396 | 3.56939 | 35076 ft | 429 kts | 210° |
| 2026-05-07 19:13 | 50.23138 | 3.52542 | 35074 ft | 428 kts | 210° |
| 2026-05-07 19:14 | 50.17887 | 3.48171 | 35072 ft | 428 kts | 210° |
| 2026-05-07 19:14 | 50.12631 | 3.43807 | 35067 ft | 428 kts | 210° |
| 2026-05-07 19:15 | 50.07360 | 3.39440 | 35072 ft | 430 kts | 210° |
| 2026-05-07 19:15 | 50.02070 | 3.35069 | 35070 ft | 431 kts | 210° |
| 2026-05-07 19:16 | 49.96759 | 3.30690 | 35067 ft | 433 kts | 210° |
| 2026-05-07 19:16 | 49.91423 | 3.26303 | 35057 ft | 435 kts | 210° |
| 2026-05-07 19:17 | 49.86075 | 3.21917 | 35064 ft | 435 kts | 210° |
| 2026-05-07 19:17 | 49.80719 | 3.17535 | 35061 ft | 436 kts | 210° |
| 2026-05-07 19:18 | 49.75357 | 3.13160 | 35061 ft | 436 kts | 210° |
| 2026-05-07 19:18 | 49.69996 | 3.08796 | 35048 ft | 435 kts | 210° |
| 2026-05-07 19:19 | 49.64649 | 3.04455 | 35059 ft | 434 kts | 210° |
| 2026-05-07 19:19 | 49.59313 | 3.00133 | 35061 ft | 433 kts | 210° |
| 2026-05-07 19:20 | 49.53984 | 2.95828 | 35056 ft | 432 kts | 210° |
| 2026-05-07 19:20 | 49.48666 | 2.91542 | 35050 ft | 431 kts | 210° |
| 2026-05-07 19:21 | 49.43359 | 2.87275 | 35058 ft | 430 kts | 209° |
| 2026-05-07 19:21 | 49.38060 | 2.83025 | 35060 ft | 430 kts | 209° |
| 2026-05-07 19:22 | 49.32759 | 2.78785 | 35061 ft | 429 kts | 209° |
| 2026-05-07 19:22 | 49.27456 | 2.74552 | 35055 ft | 430 kts | 209° |
| 2026-05-07 19:23 | 49.22151 | 2.70329 | 35056 ft | 430 kts | 209° |
| 2026-05-07 19:23 | 49.16839 | 2.66110 | 35053 ft | 431 kts | 209° |
| 2026-05-07 19:24 | 49.11518 | 2.61894 | 35056 ft | 431 kts | 209° |
| 2026-05-07 19:24 | 49.06186 | 2.57680 | 35047 ft | 432 kts | 209° |
| 2026-05-07 19:25 | 49.00853 | 2.53476 | 35047 ft | 432 kts | 209° |
| 2026-05-07 19:25 | 48.95513 | 2.49276 | 35050 ft | 432 kts | 209° |
| 2026-05-07 19:26 | 48.90180 | 2.45092 | 35048 ft | 431 kts | 209° |
| 2026-05-07 19:26 | 48.84845 | 2.40916 | 35050 ft | 431 kts | 209° |
| 2026-05-07 19:27 | 48.79509 | 2.36749 | 35047 ft | 431 kts | 209° |
| 2026-05-07 19:27 | 48.74181 | 2.32598 | 35050 ft | 430 kts | 209° |
| 2026-05-07 19:28 | 48.68854 | 2.28458 | 35050 ft | 430 kts | 209° |
| 2026-05-07 19:28 | 48.63529 | 2.24328 | 35047 ft | 430 kts | 209° |
| 2026-05-07 19:29 | 48.58204 | 2.20235 | 35039 ft | 430 kts | 207° |
| 2026-05-07 19:29 | 48.52466 | 2.17626 | 35044 ft | 433 kts | 194° |
| 2026-05-07 19:30 | 48.46556 | 2.15825 | 35020 ft | 433 kts | 194° |
| 2026-05-07 19:30 | 48.40659 | 2.13969 | 35009 ft | 433 kts | 195° |
| 2026-05-07 19:31 | 48.34776 | 2.12077 | 35022 ft | 432 kts | 195° |
| 2026-05-07 19:31 | 48.28861 | 2.10445 | 35012 ft | 435 kts | 187° |
| 2026-05-07 19:32 | 48.22807 | 2.11052 | 35028 ft | 440 kts | 174° |
| 2026-05-07 19:32 | 48.16761 | 2.12467 | 35014 ft | 439 kts | 175° |
| 2026-05-07 19:33 | 48.10722 | 2.12859 | 35012 ft | 431 kts | 190° |
| 2026-05-07 19:33 | 48.04782 | 2.11639 | 35015 ft | 431 kts | 191° |
| 2026-05-07 19:34 | 47.98838 | 2.10422 | 35017 ft | 431 kts | 191° |
| 2026-05-07 19:34 | 47.92887 | 2.09257 | 35021 ft | 432 kts | 191° |
| 2026-05-07 19:35 | 47.86928 | 2.08113 | 35022 ft | 432 kts | 191° |
| 2026-05-07 19:35 | 47.80958 | 2.06970 | 35005 ft | 432 kts | 191° |
| 2026-05-07 19:36 | 47.74992 | 2.05830 | 34999 ft | 432 kts | 191° |
| 2026-05-07 19:36 | 47.69027 | 2.04691 | 35003 ft | 432 kts | 191° |
| 2026-05-07 19:37 | 47.63087 | 2.03376 | 35000 ft | 430 kts | 197° |
| 2026-05-07 19:37 | 47.57516 | 2.00355 | 34990 ft | 426 kts | 204° |
| 2026-05-07 19:38 | 47.52022 | 1.97084 | 35005 ft | 426 kts | 204° |
| 2026-05-07 19:38 | 47.46513 | 1.93861 | 34998 ft | 425 kts | 204° |
| 2026-05-07 19:39 | 47.41004 | 1.90674 | 34998 ft | 425 kts | 204° |
| 2026-05-07 19:39 | 47.36422 | 1.88033 | 34989 ft | 425 kts | 204° |
| 2026-05-07 19:40 | 47.29986 | 1.84330 | 34991 ft | 424 kts | 204° |
| 2026-05-07 19:40 | 47.24486 | 1.81171 | 34998 ft | 424 kts | 204° |
| 2026-05-07 19:41 | 47.18983 | 1.78024 | 35001 ft | 424 kts | 204° |
| 2026-05-07 19:41 | 47.13475 | 1.74921 | 34995 ft | 424 kts | 203° |
| 2026-05-07 19:42 | 47.07966 | 1.71832 | 34998 ft | 424 kts | 203° |
| 2026-05-07 19:42 | 47.02461 | 1.68747 | 34998 ft | 423 kts | 203° |
| 2026-05-07 19:43 | 46.96958 | 1.65667 | 34999 ft | 423 kts | 203° |
| 2026-05-07 19:43 | 46.91457 | 1.62594 | 34999 ft | 423 kts | 203° |
| 2026-05-07 19:44 | 46.86848 | 1.60025 | 34996 ft | 423 kts | 203° |
| 2026-05-07 19:44 | 46.81384 | 1.56985 | 34992 ft | 423 kts | 203° |
| 2026-05-07 19:45 | 46.75882 | 1.53931 | 34994 ft | 423 kts | 203° |
| 2026-05-07 19:45 | 46.70379 | 1.50882 | 34995 ft | 423 kts | 203° |
| 2026-05-07 19:46 | 46.64874 | 1.47840 | 34994 ft | 423 kts | 203° |
| 2026-05-07 19:46 | 46.59372 | 1.44805 | 34990 ft | 423 kts | 203° |
| 2026-05-07 19:47 | 46.53863 | 1.41774 | 34983 ft | 423 kts | 202° |
| 2026-05-07 19:47 | 46.48359 | 1.38751 | 34993 ft | 423 kts | 202° |
| 2026-05-07 19:48 | 46.42855 | 1.35735 | 34989 ft | 423 kts | 202° |
| 2026-05-07 19:48 | 46.37337 | 1.32718 | 34991 ft | 423 kts | 202° |
| 2026-05-07 19:49 | 46.31824 | 1.29710 | 34986 ft | 423 kts | 202° |
| 2026-05-07 19:49 | 46.26314 | 1.26711 | 34986 ft | 423 kts | 202° |
| 2026-05-07 19:50 | 46.20801 | 1.23716 | 34986 ft | 423 kts | 202° |
| 2026-05-07 19:50 | 46.15288 | 1.20727 | 34970 ft | 423 kts | 202° |
| 2026-05-07 19:51 | 46.09773 | 1.17744 | 34983 ft | 423 kts | 202° |
| 2026-05-07 19:51 | 46.04258 | 1.14767 | 34975 ft | 424 kts | 202° |
| 2026-05-07 19:52 | 45.98731 | 1.11790 | 34972 ft | 424 kts | 202° |
| 2026-05-07 19:52 | 45.93203 | 1.08818 | 34966 ft | 424 kts | 202° |
| 2026-05-07 19:53 | 45.87673 | 1.05851 | 34968 ft | 424 kts | 202° |
| 2026-05-07 19:53 | 45.82209 | 1.02672 | 34959 ft | 423 kts | 209° |
| 2026-05-07 19:54 | 45.77449 | 0.97778 | 34978 ft | 422 kts | 220° |
| 2026-05-07 19:54 | 45.72975 | 0.92339 | 34977 ft | 422 kts | 220° |
| 2026-05-07 19:55 | 45.68486 | 0.86924 | 34980 ft | 422 kts | 220° |
| 2026-05-07 19:55 | 45.63985 | 0.81541 | 34984 ft | 422 kts | 220° |
| 2026-05-07 19:56 | 45.59474 | 0.76171 | 34989 ft | 423 kts | 220° |
| 2026-05-07 19:56 | 45.54952 | 0.70803 | 34972 ft | 423 kts | 220° |
| 2026-05-07 19:57 | 45.50421 | 0.65436 | 34971 ft | 423 kts | 220° |
| 2026-05-07 19:57 | 45.45886 | 0.60074 | 34964 ft | 424 kts | 219° |
| 2026-05-07 19:58 | 45.41343 | 0.54715 | 34964 ft | 424 kts | 219° |
| 2026-05-07 19:58 | 45.36797 | 0.49363 | 34952 ft | 424 kts | 219° |
| 2026-05-07 19:59 | 45.32242 | 0.44012 | 34960 ft | 425 kts | 219° |
| 2026-05-07 19:59 | 45.27686 | 0.38672 | 34963 ft | 425 kts | 219° |
| 2026-05-07 20:00 | 45.23119 | 0.33331 | 34969 ft | 426 kts | 219° |
| 2026-05-07 20:00 | 45.18543 | 0.27988 | 34958 ft | 426 kts | 219° |
| 2026-05-07 20:01 | 45.13964 | 0.22656 | 34960 ft | 426 kts | 219° |
| 2026-05-07 20:01 | 45.09377 | 0.17322 | 34962 ft | 427 kts | 219° |
| 2026-05-07 20:02 | 45.04787 | 0.11998 | 34958 ft | 427 kts | 219° |
| 2026-05-07 20:02 | 45.00189 | 0.06680 | 34956 ft | 427 kts | 219° |
| 2026-05-07 20:03 | 44.95591 | 0.01372 | 34955 ft | 427 kts | 219° |
| 2026-05-07 20:03 | 44.90988 | -0.03933 | 34961 ft | 428 kts | 220° |
| 2026-05-07 20:04 | 44.86377 | -0.09237 | 34957 ft | 428 kts | 219° |
| 2026-05-07 20:04 | 44.81749 | -0.14549 | 34954 ft | 429 kts | 219° |
| 2026-05-07 20:05 | 44.77114 | -0.19859 | 34956 ft | 430 kts | 219° |
| 2026-05-07 20:05 | 44.72472 | -0.25166 | 34953 ft | 430 kts | 219° |
| 2026-05-07 20:06 | 44.67824 | -0.30469 | 34952 ft | 431 kts | 219° |
| 2026-05-07 20:06 | 44.63096 | -0.35650 | 34949 ft | 431 kts | 216° |
| 2026-05-07 20:07 | 44.58146 | -0.40410 | 34948 ft | 431 kts | 215° |
| 2026-05-07 20:07 | 44.53179 | -0.45123 | 34953 ft | 431 kts | 215° |
| 2026-05-07 20:08 | 44.48224 | -0.49861 | 34956 ft | 431 kts | 215° |
| 2026-05-07 20:08 | 44.43276 | -0.54608 | 34956 ft | 431 kts | 215° |
| 2026-05-07 20:09 | 44.38329 | -0.59346 | 34948 ft | 431 kts | 215° |
| 2026-05-07 20:10 | 44.30894 | -0.66450 | 34953 ft | 432 kts | 215° |
| 2026-05-07 20:10 | 44.25944 | -0.71209 | 34948 ft | 432 kts | 216° |
| 2026-05-07 20:11 | 44.21090 | -0.76161 | 34942 ft | 432 kts | 217° |
| 2026-05-07 20:11 | 44.16257 | -0.81145 | 34941 ft | 433 kts | 218° |
| 2026-05-07 20:12 | 44.11404 | -0.86110 | 34942 ft | 433 kts | 218° |
| 2026-05-07 20:12 | 44.06545 | -0.91050 | 34943 ft | 432 kts | 217° |
| 2026-05-07 20:13 | 44.01689 | -0.95970 | 34923 ft | 432 kts | 218° |
| 2026-05-07 20:13 | 43.96838 | -1.00875 | 34932 ft | 431 kts | 218° |
| 2026-05-07 20:14 | 43.91984 | -1.05772 | 34937 ft | 431 kts | 218° |
| 2026-05-07 20:14 | 43.87133 | -1.10658 | 34936 ft | 431 kts | 218° |
| 2026-05-07 20:15 | 43.82281 | -1.15535 | 34937 ft | 431 kts | 218° |
| 2026-05-07 20:15 | 43.77428 | -1.20402 | 34938 ft | 431 kts | 218° |
| 2026-05-07 20:16 | 43.72575 | -1.25260 | 34937 ft | 431 kts | 218° |
| 2026-05-07 20:16 | 43.67719 | -1.30111 | 34936 ft | 431 kts | 218° |
| 2026-05-07 20:17 | 43.62976 | -1.34834 | 34914 ft | 406 kts | 218° |
| 2026-05-07 20:17 | 43.60721 | -1.37076 | 34905 ft | 392 kts | 218° |
| 2026-05-07 20:17 | 43.58550 | -1.39235 | 34895 ft | 379 kts | 218° |
| 2026-05-07 20:17 | 43.56452 | -1.41320 | 34893 ft | 366 kts | 219° |
| 2026-05-07 20:18 | 43.54422 | -1.43338 | 34859 ft | 354 kts | 219° |
| 2026-05-07 20:18 | 43.52435 | -1.45313 | 34563 ft | 351 kts | 219° |
| 2026-05-07 20:18 | 43.50465 | -1.47290 | 34173 ft | 350 kts | 223° |
| 2026-05-07 20:18 | 43.48882 | -1.49780 | 33665 ft | 345 kts | 244° |
| 2026-05-07 20:19 | 43.48086 | -1.52900 | 33010 ft | 352 kts | 265° |
| 2026-05-07 20:19 | 43.48051 | -1.56324 | 32476 ft | 367 kts | 273° |
| 2026-05-07 20:19 | 43.48266 | -1.59797 | 31625 ft | 376 kts | 275° |
| 2026-05-07 20:19 | 43.48582 | -1.63525 | 30379 ft | 394 kts | 275° |
| 2026-05-07 20:20 | 43.48958 | -1.67344 | 29242 ft | 408 kts | 275° |
| 2026-05-07 20:20 | 43.49361 | -1.71212 | 28545 ft | 407 kts | 276° |
| 2026-05-07 20:20 | 43.49767 | -1.75042 | 28131 ft | 400 kts | 276° |
| 2026-05-07 20:20 | 43.50172 | -1.78791 | 27853 ft | 391 kts | 276° |
| 2026-05-07 20:21 | 43.50572 | -1.82458 | 27553 ft | 386 kts | 276° |
| 2026-05-07 20:21 | 43.50975 | -1.86145 | 27305 ft | 393 kts | 276° |
| 2026-05-07 20:21 | 43.51382 | -1.89885 | 27048 ft | 397 kts | 276° |
| 2026-05-07 20:21 | 43.51786 | -1.93646 | 26792 ft | 395 kts | 276° |
| 2026-05-07 20:22 | 43.52180 | -1.97375 | 26524 ft | 392 kts | 276° |
| 2026-05-07 20:22 | 43.52565 | -2.01078 | 26258 ft | 389 kts | 276° |
| 2026-05-07 20:22 | 43.52945 | -2.04756 | 26005 ft | 387 kts | 276° |
| 2026-05-07 20:22 | 43.53322 | -2.08421 | 25751 ft | 385 kts | 276° |
| 2026-05-07 20:23 | 43.53696 | -2.12065 | 25507 ft | 384 kts | 276° |
| 2026-05-07 20:23 | 43.54068 | -2.15709 | 25255 ft | 383 kts | 276° |
| 2026-05-07 20:23 | 43.54437 | -2.19338 | 25012 ft | 383 kts | 276° |
| 2026-05-07 20:23 | 43.54806 | -2.22970 | 24770 ft | 382 kts | 276° |
| 2026-05-07 20:24 | 43.55174 | -2.26604 | 24432 ft | 384 kts | 276° |
| 2026-05-07 20:24 | 43.55418 | -2.29021 | 24133 ft | 385 kts | 276° |
| 2026-05-07 20:24 | 43.55781 | -2.32667 | 23712 ft | 381 kts | 276° |
| 2026-05-07 20:24 | 43.56134 | -2.36266 | 23254 ft | 377 kts | 276° |
| 2026-05-07 20:25 | 43.56481 | -2.39831 | 22761 ft | 374 kts | 276° |
| 2026-05-07 20:25 | 43.56824 | -2.43378 | 22273 ft | 372 kts | 276° |
| 2026-05-07 20:25 | 43.57161 | -2.46905 | 21808 ft | 371 kts | 276° |
| 2026-05-07 20:25 | 43.57494 | -2.50427 | 21310 ft | 369 kts | 276° |
| 2026-05-07 20:26 | 43.57822 | -2.53930 | 20857 ft | 368 kts | 276° |
| 2026-05-07 20:26 | 43.58146 | -2.57421 | 20399 ft | 366 kts | 276° |
| 2026-05-07 20:26 | 43.58464 | -2.60901 | 19950 ft | 365 kts | 276° |
| 2026-05-07 20:26 | 43.58778 | -2.64368 | 19501 ft | 363 kts | 276° |
| 2026-05-07 20:27 | 43.59087 | -2.67817 | 19073 ft | 362 kts | 275° |
| 2026-05-07 20:27 | 43.59394 | -2.71252 | 18649 ft | 360 kts | 275° |
| 2026-05-07 20:27 | 43.59702 | -2.74674 | 18213 ft | 359 kts | 275° |
| 2026-05-07 20:27 | 43.60008 | -2.78080 | 17730 ft | 357 kts | 275° |
| 2026-05-07 20:28 | 43.60315 | -2.81468 | 17247 ft | 355 kts | 275° |
| 2026-05-07 20:28 | 43.60624 | -2.84843 | 16776 ft | 353 kts | 275° |
| 2026-05-07 20:28 | 43.60932 | -2.88198 | 16302 ft | 352 kts | 275° |
| 2026-05-07 20:28 | 43.61241 | -2.91529 | 15847 ft | 350 kts | 275° |
| 2026-05-07 20:29 | 43.61550 | -2.94851 | 15396 ft | 348 kts | 275° |
| 2026-05-07 20:29 | 43.61859 | -2.98149 | 14945 ft | 346 kts | 275° |
| 2026-05-07 20:29 | 43.62168 | -3.01430 | 14510 ft | 344 kts | 275° |
| 2026-05-07 20:29 | 43.62479 | -3.04697 | 14074 ft | 342 kts | 275° |
| 2026-05-07 20:30 | 43.62794 | -3.07946 | 13651 ft | 340 kts | 275° |
| 2026-05-07 20:30 | 43.63116 | -3.11165 | 13166 ft | 337 kts | 275° |
| 2026-05-07 20:30 | 43.63170 | -3.11701 | 13085 ft | 335 kts | 275° |
| 2026-05-07 20:31 | 43.63391 | -3.13896 | 12907 ft | 326 kts | 276° |
| 2026-05-07 20:31 | 43.63697 | -3.16914 | 12790 ft | 308 kts | 275° |
| 2026-05-07 20:32 | 43.63993 | -3.19779 | 12553 ft | 297 kts | 275° |
| 2026-05-07 20:32 | 43.64276 | -3.22596 | 12040 ft | 296 kts | 276° |
| 2026-05-07 20:32 | 43.64547 | -3.25411 | 11539 ft | 296 kts | 275° |
| 2026-05-07 20:32 | 43.64820 | -3.28221 | 11040 ft | 295 kts | 275° |
| 2026-05-07 20:33 | 43.65072 | -3.31022 | 10544 ft | 293 kts | 270° |
| 2026-05-07 20:33 | 43.64732 | -3.33748 | 10054 ft | 287 kts | 243° |
| 2026-05-07 20:33 | 43.63574 | -3.35923 | 9561 ft | 282 kts | 218° |
| 2026-05-07 20:33 | 43.61961 | -3.37426 | 9063 ft | 279 kts | 210° |
| 2026-05-07 20:34 | 43.60286 | -3.38778 | 8539 ft | 279 kts | 209° |
| 2026-05-07 20:34 | 43.58602 | -3.40105 | 8104 ft | 276 kts | 208° |
| 2026-05-07 20:34 | 43.56950 | -3.41400 | 7743 ft | 271 kts | 208° |
| 2026-05-07 20:34 | 43.55232 | -3.42344 | 7374 ft | 268 kts | 187° |
| 2026-05-07 20:35 | 43.53381 | -3.42111 | 7040 ft | 269 kts | 161° |
| 2026-05-07 20:35 | 43.51673 | -3.41113 | 6992 ft | 264 kts | 155° |
| 2026-05-07 20:35 | 43.50000 | -3.40016 | 6968 ft | 266 kts | 155° |
| 2026-05-07 20:35 | 43.48334 | -3.38907 | 6803 ft | 265 kts | 154° |
| 2026-05-07 20:36 | 43.46681 | -3.37801 | 6627 ft | 263 kts | 154° |
| 2026-05-07 20:36 | 43.45070 | -3.36719 | 6462 ft | 260 kts | 154° |
| 2026-05-07 20:36 | 43.43430 | -3.35615 | 6286 ft | 258 kts | 154° |
| 2026-05-07 20:36 | 43.41845 | -3.34546 | 6107 ft | 256 kts | 154° |
| 2026-05-07 20:37 | 43.40250 | -3.33412 | 5918 ft | 254 kts | 146° |
| 2026-05-07 20:37 | 43.39088 | -3.31662 | 5706 ft | 255 kts | 117° |
| 2026-05-07 20:37 | 43.38498 | -3.29343 | 5549 ft | 251 kts | 103° |
| 2026-05-07 20:37 | 43.38354 | -3.26964 | 5348 ft | 249 kts | 93° |
| 2026-05-07 20:38 | 43.38347 | -3.24611 | 5158 ft | 243 kts | 92° |
| 2026-05-07 20:38 | 43.38361 | -3.22302 | 4841 ft | 241 kts | 91° |
| 2026-05-07 20:38 | 43.38386 | -3.20049 | 4487 ft | 229 kts | 91° |
| 2026-05-07 20:38 | 43.38414 | -3.17920 | 4092 ft | 218 kts | 91° |
| 2026-05-07 20:39 | 43.38445 | -3.15870 | 3699 ft | 212 kts | 91° |
| 2026-05-07 20:39 | 43.38379 | -3.13913 | 3553 ft | 193 kts | 109° |
| 2026-05-07 20:39 | 43.37867 | -3.12311 | 3383 ft | 177 kts | 120° |
| 2026-05-07 20:39 | 43.37341 | -3.10828 | 3142 ft | 168 kts | 120° |
| 2026-05-07 20:40 | 43.36820 | -3.09384 | 2917 ft | 168 kts | 119° |
| 2026-05-07 20:40 | 43.36296 | -3.07951 | 2690 ft | 166 kts | 120° |
| 2026-05-07 20:40 | 43.35780 | -3.06544 | 2452 ft | 165 kts | 119° |
| 2026-05-07 20:40 | 43.35267 | -3.05147 | 2214 ft | 162 kts | 118° |
| 2026-05-07 20:41 | 43.34765 | -3.03778 | 2020 ft | 156 kts | 118° |
| 2026-05-07 20:41 | 43.34298 | -3.02502 | 1792 ft | 146 kts | 118° |
| 2026-05-07 20:41 | 43.33844 | -3.01263 | 1607 ft | 145 kts | 118° |
| 2026-05-07 20:41 | 43.33386 | -3.00014 | 1394 ft | 147 kts | 117° |
| 2026-05-07 20:42 | 43.32927 | -2.98761 | 1207 ft | 147 kts | 117° |
| 2026-05-07 20:42 | 43.32470 | -2.97504 | 1001 ft | 148 kts | 117° |
| 2026-05-07 20:42 | 43.32007 | -2.96258 | 779 ft | 145 kts | 116° |
| 2026-05-07 20:42 | 43.31560 | -2.95032 | 592 ft | 141 kts | 116° |
| 2026-05-07 20:43 | 43.31118 | -2.93825 | 397 ft | 142 kts | 116° |
| 2026-05-07 20:43 | 43.30679 | -2.92615 | 195 ft | 140 kts | 116° |
| 2026-05-07 20:43 | 43.30270 | -2.91493 | 124 ft | 105 kts | 117° |
| 2026-05-07 20:43 | 43.30095 | -2.90965 | 124 ft | 40 kts | 97° |
| 2026-05-07 20:44 | 43.30084 | -2.90777 | 130 ft | 12 kts | 95° |
| 2026-05-07 20:44 | 43.30082 | -2.90667 | 131 ft | 11 kts | 76° |
| 2026-05-07 20:44 | 43.30106 | -2.90625 | 127 ft | 5 kts | 34° |
| 2026-05-07 20:44 | 43.30135 | -2.90599 | 130 ft | 5 kts | 35° |
| 2026-05-07 20:45 | 43.30167 | -2.90569 | 130 ft | 7 kts | 32° |
| 2026-05-07 20:45 | 43.30215 | -2.90530 | 131 ft | 10 kts | 25° |
| 2026-05-07 20:45 | 43.30286 | -2.90559 | 131 ft | 12 kts | 327° |
| 2026-05-07 20:45 | 43.30354 | -2.90646 | 131 ft | 15 kts | 301° |
| 2026-05-07 20:46 | 43.30398 | -2.90766 | 131 ft | 11 kts | 296° |
| 2026-05-07 20:46 | 43.30429 | -2.90837 | 131 ft | 7 kts | 345° |
| 2026-05-07 20:46 | 43.30465 | -2.90821 | 127 ft | 2 kts | 27° |
| 2026-05-07 20:46 | 43.30479 | -2.90810 | 129 ft | 2 kts | 27° |
| 2026-05-07 20:47 | 43.30481 | -2.90809 | 130 ft | 0 kts | 27° |